createdAt,value
2018-06-13T00:04:47.927Z,96.50
2018-06-13T00:07:51.610Z,96.30
2018-06-13T00:10:55.263Z,96.40
2018-06-13T00:13:58.899Z,96.70
2018-06-13T00:17:02.543Z,96.80
2018-06-13T00:20:09.227Z,96.90
2018-06-13T00:23:12.873Z,97.20
2018-06-13T00:29:19.891Z,97.50
2018-06-13T00:32:23.570Z,97.60
2018-06-13T00:35:27.272Z,97.80
2018-06-13T00:38:30.875Z,97.90
2018-06-13T00:44:37.861Z,98.10
2018-06-13T00:47:41.511Z,98.50
2018-06-13T00:50:45.143Z,98.50
2018-06-13T00:53:48.798Z,98.70
2018-06-13T00:56:52.418Z,99.10
2018-06-13T00:59:56.070Z,99.30
2018-06-13T01:02:59.750Z,99.50
2018-06-13T01:06:03.401Z,99.70
2018-06-13T01:12:10.872Z,99.90
2018-06-13T01:15:14.500Z,99.90
2018-06-13T01:21:21.515Z,99.90
2018-06-13T01:24:25.167Z,99.90
2018-06-13T01:27:28.800Z,99.90
2018-06-13T01:30:32.449Z,99.90
2018-06-13T01:33:36.075Z,99.90
2018-06-13T01:36:39.714Z,99.90
2018-06-13T01:39:43.326Z,99.90
2018-06-13T01:45:50.805Z,99.90
2018-06-13T01:48:54.508Z,99.90
2018-06-13T01:51:58.128Z,99.90
2018-06-13T01:55:01.762Z,99.90
2018-06-13T01:58:05.390Z,99.90
2018-06-13T02:01:09.054Z,99.90
2018-06-13T02:04:12.818Z,99.90
2018-06-13T02:07:16.460Z,99.90
2018-06-13T02:13:23.467Z,99.90
2018-06-13T02:16:27.092Z,99.90
2018-06-13T02:19:30.721Z,99.90
2018-06-13T02:22:34.370Z,99.90
2018-06-13T02:25:37.994Z,99.90
2018-06-13T02:28:41.642Z,99.90
2018-06-13T02:31:45.253Z,99.90
2018-06-13T02:34:48.895Z,99.90
2018-06-13T02:37:52.526Z,99.90
2018-06-13T02:40:56.153Z,99.90
2018-06-13T02:43:59.804Z,99.90
2018-06-13T02:47:03.425Z,99.90
2018-06-13T02:50:07.066Z,99.90
2018-06-13T02:53:10.691Z,99.90
2018-06-13T02:59:17.679Z,99.90
2018-06-13T03:05:24.665Z,99.90
2018-06-13T03:08:28.335Z,99.90
2018-06-13T03:11:31.945Z,99.90
2018-06-13T03:14:35.590Z,99.90
2018-06-13T04:05:00.014Z,99.90
2018-06-13T04:08:03.639Z,99.90
2018-06-13T04:11:07.296Z,99.90
2018-06-13T04:14:10.918Z,99.90
2018-06-13T04:17:14.556Z,99.90
2018-06-13T04:20:18.148Z,99.90
2018-06-13T04:26:25.151Z,99.90
2018-06-13T04:29:28.859Z,99.90
2018-06-13T04:32:32.447Z,99.90
2018-06-13T04:35:36.083Z,99.90
2018-06-13T04:38:39.678Z,99.90
2018-06-13T04:41:43.317Z,99.90
2018-06-13T04:44:46.971Z,99.90
2018-06-13T04:47:50.574Z,99.90
2018-06-13T04:50:54.192Z,99.90
2018-06-13T04:53:57.837Z,99.90
2018-06-13T04:57:01.488Z,99.90
2018-06-13T05:06:11.830Z,99.90
2018-06-13T05:09:15.468Z,99.90
2018-06-13T05:12:19.091Z,99.90
2018-06-13T05:15:22.783Z,99.90
2018-06-13T05:18:26.389Z,99.90
2018-06-13T05:21:30.036Z,99.90
2018-06-13T05:24:33.675Z,99.90
2018-06-13T05:27:37.291Z,99.90
2018-06-13T05:30:41.682Z,99.90
2018-06-13T05:33:45.289Z,99.90
2018-06-13T05:36:48.945Z,99.90
2018-06-13T05:39:52.620Z,99.90
2018-06-13T05:42:56.294Z,99.90
2018-06-13T05:46:00.031Z,99.90
2018-06-13T05:49:03.610Z,99.90
2018-06-13T05:52:07.255Z,99.90
2018-06-13T05:55:10.870Z,99.90
2018-06-13T05:58:14.639Z,99.90
2018-06-13T06:01:18.384Z,99.90
2018-06-13T06:04:22.111Z,99.90
2018-06-13T06:07:26.060Z,99.90
2018-06-13T06:10:29.832Z,99.90
2018-06-13T06:13:33.422Z,99.90
2018-06-13T06:16:37.126Z,99.90
2018-06-13T06:19:40.726Z,99.90
2018-06-13T06:22:44.438Z,99.90
2018-06-13T06:25:48.052Z,99.90
2018-06-13T06:28:51.682Z,99.90
2018-06-13T06:31:55.294Z,99.90
2018-06-13T06:34:58.957Z,99.90
2018-06-13T06:38:02.578Z,99.90
2018-06-13T06:41:06.222Z,99.90
2018-06-13T06:44:09.837Z,99.90
2018-06-13T06:47:13.466Z,99.90
2018-06-13T06:50:17.091Z,99.90
2018-06-13T06:53:20.749Z,99.90
2018-06-13T06:56:24.386Z,99.90
2018-06-13T06:59:28.019Z,99.90
2018-06-13T07:02:31.635Z,99.90
2018-06-13T07:05:35.287Z,99.90
2018-06-13T07:08:38.940Z,99.90
2018-06-13T07:11:42.582Z,99.90
2018-06-13T07:14:46.264Z,99.90
2018-06-13T07:17:49.886Z,99.90
2018-06-13T07:20:53.609Z,99.90
2018-06-13T07:23:57.250Z,99.90
2018-06-13T07:27:00.867Z,99.90
2018-06-13T07:30:04.559Z,99.90
2018-06-13T07:33:08.158Z,99.90
2018-06-13T07:36:11.793Z,99.90
2018-06-13T07:39:15.397Z,99.90
2018-06-13T07:42:19.201Z,99.90
2018-06-13T07:45:22.817Z,98.80
2018-06-13T07:51:29.812Z,98.20
2018-06-13T07:54:33.426Z,97.80
2018-06-13T07:57:37.075Z,96.10
2018-06-13T08:00:40.685Z,93.90
2018-06-13T08:03:44.318Z,92.70
2018-06-13T08:06:48.063Z,93.50
2018-06-13T08:09:51.658Z,94.60
2018-06-13T08:12:55.259Z,95.20
2018-06-13T08:15:58.899Z,95.90
2018-06-13T08:19:02.510Z,96.40
2018-06-13T08:22:06.229Z,96.50
2018-06-13T08:25:09.834Z,96.60
2018-06-13T08:28:13.458Z,96.80
2018-06-13T08:31:17.062Z,96.60
2018-06-13T08:34:21.085Z,95.40
2018-06-13T08:37:24.696Z,94.20
2018-06-13T08:40:28.330Z,92.60
2018-06-13T08:43:31.960Z,93.30
2018-06-13T08:46:36.438Z,94.40
2018-06-13T08:49:40.065Z,95.20
2018-06-13T08:52:43.688Z,95.70
2018-06-13T08:55:47.347Z,95.90
2018-06-13T08:58:50.935Z,95.80
2018-06-13T09:01:54.587Z,95.20
2018-06-13T09:04:58.250Z,95.30
2018-06-13T09:08:01.986Z,95.30
2018-06-13T09:11:05.867Z,95.10
2018-06-13T09:14:09.472Z,95.00
2018-06-13T09:17:13.111Z,94.90
2018-06-13T09:20:16.730Z,94.80
2018-06-13T09:23:20.466Z,94.60
2018-06-13T09:29:27.423Z,93.80
2018-06-13T09:32:31.038Z,93.80
2018-06-13T09:35:34.664Z,93.90
2018-06-13T09:38:38.302Z,94.70
2018-06-13T09:41:47.519Z,95.40
2018-06-13T09:44:51.134Z,95.90
2018-06-13T09:47:54.773Z,96.00
2018-06-13T09:50:58.371Z,96.50
2018-06-13T09:54:02.021Z,96.50
2018-06-13T10:03:18.370Z,97.00
2018-06-13T10:06:22.051Z,97.40
2018-06-13T10:09:25.767Z,97.50
2018-06-13T10:12:29.461Z,97.70
2018-06-13T10:15:33.059Z,97.20
2018-06-13T10:21:40.039Z,95.60
2018-06-13T10:24:43.686Z,95.20
2018-06-13T10:27:47.449Z,94.60
2018-06-13T10:30:51.088Z,94.70
2018-06-13T10:33:54.697Z,94.30
2018-06-13T10:36:58.341Z,94.20
2018-06-13T10:40:01.957Z,94.20
2018-06-13T10:43:05.678Z,94.20
2018-06-13T10:46:09.254Z,94.10
2018-06-13T10:49:12.897Z,94.20
2018-06-13T10:52:16.514Z,94.30
2018-06-13T10:55:20.158Z,95.00
2018-06-13T10:58:23.788Z,94.70
2018-06-13T11:04:30.821Z,95.30
2018-06-13T11:07:34.460Z,95.60
2018-06-13T11:10:38.071Z,95.80
2018-06-13T11:13:41.701Z,96.30
2018-06-13T11:19:48.706Z,97.00
2018-06-13T11:22:52.330Z,97.40
2018-06-13T11:25:55.950Z,97.70
2018-06-13T11:32:02.998Z,98.00
2018-06-13T11:35:07.263Z,98.40
2018-06-13T11:38:10.916Z,98.30
2018-06-13T11:41:14.506Z,98.50
2018-06-13T11:44:18.143Z,98.90
2018-06-13T11:47:21.776Z,99.00
2018-06-13T11:50:25.450Z,98.80
2018-06-13T11:53:29.086Z,98.90
2018-06-13T11:56:32.986Z,98.60
2018-06-13T11:59:36.587Z,98.60
2018-06-13T12:02:40.210Z,98.50
2018-06-13T12:05:43.838Z,98.20
2018-06-13T12:11:50.823Z,98.30
2018-06-13T12:14:54.502Z,98.00
2018-06-13T12:17:58.140Z,97.80
2018-06-13T12:24:05.573Z,98.60
2018-06-13T12:27:09.216Z,98.20
2018-06-13T12:30:12.817Z,98.40
2018-06-13T12:33:16.451Z,98.60
2018-06-13T12:36:20.056Z,98.80
2018-06-13T12:39:23.673Z,98.80
2018-06-13T12:45:30.647Z,98.90
2018-06-13T12:48:34.527Z,99.40
2018-06-13T12:51:38.178Z,99.50
2018-06-13T12:54:41.776Z,99.50
2018-06-13T12:57:45.389Z,99.40
2018-06-13T13:00:49.853Z,99.70
2018-06-13T13:03:53.489Z,99.50
2018-06-13T13:06:57.123Z,99.70
2018-06-13T13:10:00.758Z,99.50
2018-06-13T13:13:04.573Z,99.60
2018-06-13T13:16:08.199Z,99.70
2018-06-13T13:19:11.803Z,99.60
2018-06-13T13:22:15.431Z,99.50
2018-06-13T13:25:19.062Z,99.60
2018-06-13T13:28:22.728Z,99.50
2018-06-13T13:31:26.319Z,99.20
2018-06-13T13:34:30.316Z,99.30
2018-06-13T13:37:33.902Z,99.60
2018-06-13T13:40:37.544Z,99.40
2018-06-13T13:43:41.158Z,99.60
2018-06-13T13:46:44.787Z,99.80
2018-06-13T13:49:48.453Z,99.90
2018-06-13T13:52:52.346Z,99.90
2018-06-13T13:55:55.958Z,99.90
2018-06-13T13:58:59.591Z,99.90
2018-06-13T14:02:03.217Z,99.90
2018-06-13T14:05:06.857Z,99.90
2018-06-13T14:08:10.486Z,99.90
2018-06-13T14:11:14.164Z,99.90
2018-06-13T14:14:17.779Z,99.70
2018-06-13T14:20:24.776Z,99.50
2018-06-13T14:26:31.751Z,99.70
2018-06-13T14:29:35.411Z,99.90
2018-06-13T14:35:42.482Z,99.90
2018-06-13T14:41:49.458Z,99.90
2018-06-13T14:44:53.337Z,99.90
2018-06-13T14:47:57.011Z,99.90
2018-06-13T14:51:00.693Z,99.90
2018-06-13T14:54:04.397Z,99.90
2018-06-13T14:57:07.997Z,99.90
2018-06-13T15:00:12.317Z,99.90
2018-06-13T15:06:19.290Z,99.90
2018-06-13T15:09:22.918Z,99.90
2018-06-13T15:15:29.903Z,99.90
2018-06-13T15:18:34.335Z,99.90
2018-06-13T15:21:37.944Z,99.90
2018-06-13T15:27:45.039Z,99.90
2018-06-13T15:30:48.732Z,99.90
2018-06-13T15:33:52.404Z,99.90
2018-06-13T15:36:55.983Z,99.90
2018-06-13T15:39:59.593Z,99.90
2018-06-13T15:43:03.233Z,99.90
2018-06-13T15:46:06.865Z,99.90
2018-06-13T15:49:10.799Z,99.90
2018-06-13T15:52:14.412Z,99.90
2018-06-13T15:55:18.033Z,99.90
2018-06-13T15:58:21.646Z,99.90
2018-06-13T16:01:25.415Z,99.90
2018-06-13T16:04:29.051Z,99.90
2018-06-13T16:07:32.682Z,99.90
2018-06-13T16:10:36.318Z,99.90
2018-06-13T16:13:39.958Z,99.90
2018-06-13T16:16:43.582Z,99.70
2018-06-13T16:22:50.726Z,99.90
2018-06-13T16:25:54.386Z,99.80
2018-06-13T16:32:01.419Z,99.90
2018-06-13T16:35:05.052Z,99.90
2018-06-13T16:38:08.720Z,99.90
2018-06-13T16:41:12.317Z,99.90
2018-06-13T16:44:16.070Z,99.90
2018-06-13T16:47:19.682Z,99.90
2018-06-13T16:50:34.867Z,99.90
2018-06-13T16:53:46.631Z,99.90
2018-06-13T16:56:50.266Z,99.90
2018-06-13T16:59:53.883Z,99.90
2018-06-13T17:02:57.582Z,99.90
2018-06-13T17:06:01.259Z,99.90
2018-06-13T17:09:06.603Z,99.90
2018-06-13T17:12:10.331Z,99.90
2018-06-13T17:15:13.924Z,99.90
2018-06-13T17:18:17.545Z,99.90
2018-06-13T17:21:21.241Z,99.90
2018-06-13T17:24:24.816Z,99.90
2018-06-13T17:27:28.472Z,99.90
2018-06-13T17:33:35.519Z,99.90
2018-06-13T17:36:39.067Z,99.90
2018-06-13T17:39:42.714Z,99.90
2018-06-13T17:42:46.355Z,99.90
2018-06-13T17:45:50.003Z,99.90
2018-06-13T17:48:53.680Z,99.90
2018-06-13T17:51:57.337Z,99.90
2018-06-13T17:55:00.974Z,99.90
2018-06-13T18:01:07.958Z,99.90
2018-06-13T18:07:14.957Z,99.70
2018-06-13T18:13:22.058Z,99.80
2018-06-13T18:16:25.665Z,99.80
2018-06-13T18:22:32.789Z,99.90
2018-06-13T18:25:36.464Z,99.90
2018-06-13T18:28:40.069Z,99.90
2018-06-13T18:34:47.067Z,99.90
2018-06-13T18:37:51.146Z,99.90
2018-06-13T18:40:54.896Z,99.90
2018-06-13T18:43:58.498Z,99.90
2018-06-13T18:47:09.043Z,99.90
2018-06-13T18:53:16.069Z,99.90
2018-06-13T18:56:19.700Z,99.90
2018-06-13T18:59:23.631Z,99.90
2018-06-13T19:02:27.244Z,99.90
2018-06-13T19:05:30.966Z,99.90
2018-06-13T19:08:34.654Z,99.90
2018-06-13T19:11:38.642Z,99.90
2018-06-13T19:14:42.258Z,99.90
2018-06-13T19:17:45.906Z,99.90
2018-06-13T19:20:49.546Z,99.90
2018-06-13T19:23:53.498Z,99.90
2018-06-13T19:26:57.210Z,99.90
2018-06-13T19:30:00.845Z,99.90
2018-06-13T19:36:13.617Z,99.90
2018-06-13T19:39:17.295Z,99.90
2018-06-13T19:42:21.026Z,99.90
2018-06-13T19:45:24.655Z,99.90
2018-06-13T19:48:33.886Z,99.90
2018-06-13T19:51:37.504Z,99.90
2018-06-13T19:54:46.892Z,99.90
2018-06-13T19:57:50.489Z,99.90
2018-06-13T20:00:54.122Z,99.90
2018-06-13T20:04:03.336Z,99.90
2018-06-13T20:07:06.974Z,99.90
2018-06-13T20:10:10.656Z,99.90
2018-06-13T20:13:19.886Z,99.90
2018-06-13T20:16:40.617Z,99.90
2018-06-13T20:19:44.744Z,99.90
2018-06-13T20:22:48.876Z,99.90
2018-06-13T20:25:58.022Z,99.90
2018-06-13T20:29:07.166Z,99.90
2018-06-13T20:35:14.138Z,99.90
2018-06-13T20:38:17.773Z,99.90
2018-06-13T20:41:21.453Z,99.90
2018-06-13T20:44:25.150Z,99.90
2018-06-13T20:47:28.772Z,99.90
2018-06-13T20:53:35.745Z,99.90
2018-06-13T20:56:39.388Z,99.90
2018-06-13T20:59:43.017Z,99.90
2018-06-13T23:09:36.910Z,99.90
2018-06-13T23:12:40.526Z,99.90
2018-06-13T23:15:44.159Z,99.90
2018-06-13T23:18:47.785Z,99.90
2018-06-13T23:24:54.758Z,99.90
2018-06-13T23:27:58.395Z,99.90
2018-06-13T23:31:02.004Z,99.90
2018-06-13T23:34:05.650Z,99.90
2018-06-13T23:37:09.265Z,99.90
2018-06-13T23:40:12.909Z,99.90
2018-06-13T23:43:16.534Z,99.90
2018-06-13T23:46:20.166Z,99.90
2018-06-13T23:49:23.771Z,99.90
2018-06-13T23:52:27.405Z,99.90
2018-06-13T23:58:34.368Z,99.90
